Eagle Grove, Iowa
Current Conditions -  °F | °C
As of 3:35 PM on Friday 28 Nov 2014 (Local Time) from KCAV Reporting Station
Clear Clear  
Wind Chill: 17°   Ceiling: Unl
Heat Index: 28°   Visibility: 10mi
Dew Point: 27°   Wind: 15mph
Humidity: 93%   Direction: 130°SE
Pressure: 29.78"   Gusts: NA
Location:  42.66°N, 93.9°W
Report Text: KCAV 282135Z AUTO 13013KT 10SM CLR M02/M03 A2978 RMK AO2
Loading
Personal Weather Stations






























Interactive Weather Map New forecast layout! Learn more

10-Day Weather Forecast

Advertisements
Track Severe Weather on mobile